FMNN Airport Information

Runway Information
Runway 05 Length 7185 ft width 148 ft
Elevation 37 ft Threshold 0 ft Heading 43
Runway 23 Length 7185 ft Width 148 ft
Elevation 16 ft Threshold 0 ft Heading 223
Airport Frequencies
Type A/G Name A/G VOICE Frequency 548.4 MHZ
Type TWR Name TWR Frequency 118.7 MHZ
Airport Navaids
Type VOR-DME Name Fascene Frequency 117500 KHZ
Type NDB Name Fascene Frequency 381 KHZ
Airport Weather Information & NOTAM
ADDS - METARS form results

(1811 UTC 23 September 2019)
Data provider http://aviationweather.gov/metar/data/
 
Forecast for: FMNN (NOSY BE/FASCENE , KM)
Text: TAF FMNN 231700Z 2318/2418 VRB04KT 9999 FEW020
Forecast period: 1800 UTC 23 September 2019 to 1800 UTC 24 September 2019
Forecast type: FROM: standard forecast or significant change
Winds: variable direction winds at 5 MPH (4 knots; 2.1 m/s)
Visibility: 6 or more miles 10+ km)
Ceiling: at least 12,000 feet AGL
Clouds: few clouds at 2000 feet AGL
Weather: no significant weather forecast for this period